Time,TemperatureF,DewpointF,PressureIn,WindDirection,WindDirectionDegrees,WindSpeedMPH,WindSpeedGustMPH,Humidity,HourlyPrecipIn,Conditions,Clouds,dailyrainin,SoftwareType,DateUTC
2013-05-18 00:13:00,44.4,36.0,29.92,NE,47,1.0,-999.0,71,-99.99,,,0.00,weatherlink.com 1.10,2013-05-18 07:13:00,
2013-05-18 00:28:00,44.2,35.0,29.89,WNW,291,8.0,-999.0,70,-99.99,,,0.00,weatherlink.com 1.10,2013-05-18 07:28:00,
2013-05-18 00:43:00,44.1,35.0,29.90,SSE,151,6.0,-999.0,70,-99.99,,,0.00,weatherlink.com 1.10,2013-05-18 07:43:00,
2013-05-18 00:58:00,43.7,33.0,29.90,SW,229,2.0,-999.0,66,-99.99,,,0.00,weatherlink.com 1.10,2013-05-18 07:58:00,
2013-05-18 01:13:00,43.2,33.0,29.89,NNW,346,6.0,-999.0,68,-99.99,,,0.00,weatherlink.com 1.10,2013-05-18 08:13:00,
2013-05-18 01:28:00,42.4,34.0,29.90,East,99,3.0,-999.0,72,-99.99,,,0.00,weatherlink.com 1.10,2013-05-18 08:28:00,
2013-05-18 01:43:00,41.0,35.0,29.90,NNW,333,1.0,-999.0,78,-99.99,,,0.00,weatherlink.com 1.10,2013-05-18 08:43:00,
2013-05-18 01:58:00,40.2,35.0,29.91,North,4,2.0,-999.0,81,-99.99,,,0.00,weatherlink.com 1.10,2013-05-18 08:58:00,
2013-05-18 02:13:00,39.5,35.0,29.90,North,359,5.0,-999.0,84,-99.99,,,0.00,weatherlink.com 1.10,2013-05-18 09:13:00,
2013-05-18 02:28:00,39.2,35.0,29.92,NW,319,6.0,-999.0,85,-99.99,,,0.00,weatherlink.com 1.10,2013-05-18 09:28:00,
2013-05-18 02:44:00,38.9,35.0,29.92,North,356,4.0,-999.0,86,-99.99,,,0.00,weatherlink.com 1.10,2013-05-18 09:44:00,
2013-05-18 02:58:00,38.5,35.0,29.91,North,6,0.0,-999.0,87,-99.99,,,0.00,weatherlink.com 1.10,2013-05-18 09:58:00,
2013-05-18 03:13:00,38.5,35.0,29.91,SW,236,2.0,-999.0,87,-99.99,,,0.00,weatherlink.com 1.10,2013-05-18 10:13:00,
2013-05-18 03:28:00,38.8,34.0,29.91,ESE,104,0.0,-999.0,84,-99.99,,,0.00,weatherlink.com 1.10,2013-05-18 10:28:00,
2013-05-18 03:43:00,39.1,34.0,29.91,East,90,0.0,-999.0,83,-99.99,,,0.00,weatherlink.com 1.10,2013-05-18 10:43:00,
2013-05-18 03:58:00,39.5,34.0,29.90,South,178,2.0,-999.0,79,-99.99,,,0.00,weatherlink.com 1.10,2013-05-18 10:58:00,
2013-05-18 04:13:00,39.8,33.0,29.90,WSW,250,3.0,-999.0,76,-99.99,,,0.00,weatherlink.com 1.10,2013-05-18 11:13:00,
2013-05-18 04:28:00,40.0,33.0,29.90,WNW,284,1.0,-999.0,75,-99.99,,,0.00,weatherlink.com 1.10,2013-05-18 11:28:00,
2013-05-18 04:43:00,40.1,33.0,29.91,SW,226,3.0,-999.0,75,-99.99,,,0.00,weatherlink.com 1.10,2013-05-18 11:43:00,
2013-05-18 04:58:00,40.2,33.0,29.91,SSW,203,4.0,-999.0,74,-99.99,,,0.00,weatherlink.com 1.10,2013-05-18 11:58:00,
2013-05-18 05:13:00,40.2,33.0,29.91,North,356,8.0,-999.0,75,-99.99,,,0.00,weatherlink.com 1.10,2013-05-18 12:13:00,
2013-05-18 05:28:00,40.1,33.0,29.91,SSW,193,1.0,-999.0,76,-99.99,,,0.00,weatherlink.com 1.10,2013-05-18 12:28:00,
2013-05-18 05:43:00,40.1,32.0,29.91,SSW,210,2.0,-999.0,74,-99.99,,,0.00,weatherlink.com 1.10,2013-05-18 12:43:00,
2013-05-18 05:58:00,40.1,33.0,29.92,West,278,0.0,-999.0,75,-99.99,,,0.00,weatherlink.com 1.10,2013-05-18 12:58:00,
2013-05-18 06:13:00,39.8,33.0,29.93,SSW,206,0.0,-999.0,76,-99.99,,,0.00,weatherlink.com 1.10,2013-05-18 13:13:00,
2013-05-18 06:28:00,39.7,33.0,29.95,NNW,333,3.0,-999.0,77,-99.99,,,0.00,weatherlink.com 1.10,2013-05-18 13:28:00,
2013-05-18 06:43:00,39.7,33.0,29.95,ESE,119,1.0,-999.0,77,-99.99,,,0.00,weatherlink.com 1.10,2013-05-18 13:43:00,
2013-05-18 06:58:00,40.1,33.0,29.95,SW,215,0.0,-999.0,75,-99.99,,,0.00,weatherlink.com 1.10,2013-05-18 13:58:00,
2013-05-18 07:13:00,40.4,33.0,29.96,East,100,1.0,-999.0,75,-99.99,,,0.00,weatherlink.com 1.10,2013-05-18 14:13:00,
2013-05-18 07:28:00,42.0,31.0,29.98,SE,137,8.0,-999.0,65,-99.99,,,0.00,weatherlink.com 1.10,2013-05-18 14:28:00,
2013-05-18 07:43:00,42.8,31.0,29.99,South,175,9.0,-999.0,64,-99.99,,,0.00,weatherlink.com 1.10,2013-05-18 14:43:00,
2013-05-18 07:58:00,43.7,31.0,29.98,SSE,157,0.0,-999.0,62,-99.99,,,0.00,weatherlink.com 1.10,2013-05-18 14:58:00,
2013-05-18 08:13:00,44.7,31.0,29.98,SE,145,0.0,-999.0,58,-99.99,,,0.00,weatherlink.com 1.10,2013-05-18 15:13:00,
2013-05-18 08:28:00,45.8,28.0,29.98,SE,144,7.0,-999.0,51,-99.99,,,0.00,weatherlink.com 1.10,2013-05-18 15:28:00,
2013-05-18 08:43:00,47.6,29.0,29.98,SW,232,3.0,-999.0,48,-99.99,,,0.00,weatherlink.com 1.10,2013-05-18 15:43:00,
2013-05-18 08:58:00,48.5,28.0,29.97,South,186,2.0,-999.0,46,-99.99,,,0.00,weatherlink.com 1.10,2013-05-18 15:58:00,
2013-05-18 09:13:00,49.1,29.0,29.97,SW,220,6.0,-999.0,47,-99.99,,,0.00,weatherlink.com 1.10,2013-05-18 16:13:00,
2013-05-18 09:28:00,49.7,31.0,29.96,South,172,5.0,-999.0,49,-99.99,,,0.00,weatherlink.com 1.10,2013-05-18 16:28:00,
2013-05-18 09:43:00,50.5,31.0,29.97,SW,230,7.0,-999.0,47,-99.99,,,0.00,weatherlink.com 1.10,2013-05-18 16:43:00,
2013-05-18 09:58:00,51.1,30.0,29.97,SW,226,3.0,-999.0,44,-99.99,,,0.00,weatherlink.com 1.10,2013-05-18 16:58:00,
2013-05-18 10:14:00,52.2,30.0,29.97,SSW,206,2.0,-999.0,43,-99.99,,,0.00,weatherlink.com 1.10,2013-05-18 17:14:00,
2013-05-18 10:28:00,51.1,30.0,29.97,SSW,193,3.0,-999.0,44,-99.99,,,0.00,weatherlink.com 1.10,2013-05-18 17:28:00,
2013-05-18 10:43:00,51.7,31.0,29.98,ESE,113,5.0,-999.0,46,-99.99,,,0.00,weatherlink.com 1.10,2013-05-18 17:43:00,
2013-05-18 10:58:00,51.3,31.0,29.98,NNE,27,0.0,-999.0,47,-99.99,,,0.00,weatherlink.com 1.10,2013-05-18 17:58:00,
2013-05-18 11:13:00,53.4,33.0,29.98,SSE,168,5.0,-999.0,46,-99.99,,,0.00,weatherlink.com 1.10,2013-05-18 18:13:00,
2013-05-18 11:28:00,53.7,33.0,29.97,SW,222,3.0,-999.0,45,-99.99,,,0.00,weatherlink.com 1.10,2013-05-18 18:28:00,
2013-05-18 11:43:00,53.1,33.0,29.97,WSW,247,6.0,-999.0,46,-99.99,,,0.00,weatherlink.com 1.10,2013-05-18 18:43:00,
2013-05-18 11:58:00,53.7,34.0,29.97,NNW,342,1.0,-999.0,48,-99.99,,,0.00,weatherlink.com 1.10,2013-05-18 18:58:00,
2013-05-18 12:14:00,54.5,33.0,29.97,NW,315,0.0,-999.0,44,-99.99,,,0.00,weatherlink.com 1.10,2013-05-18 19:14:00,
2013-05-18 12:28:00,54.5,33.0,29.97,WNW,291,0.0,-999.0,45,-99.99,,,0.00,weatherlink.com 1.10,2013-05-18 19:28:00,
2013-05-18 12:43:00,54.4,33.0,29.97,SSE,165,0.0,-999.0,44,-99.99,,,0.00,weatherlink.com 1.10,2013-05-18 19:43:00,
2013-05-18 12:58:00,54.7,33.0,29.97,NW,304,2.0,-999.0,44,-99.99,,,0.00,weatherlink.com 1.10,2013-05-18 19:58:00,
2013-05-18 13:13:00,53.8,31.0,29.97,SSW,202,5.0,-999.0,42,-99.99,,,0.00,weatherlink.com 1.10,2013-05-18 20:13:00,
2013-05-18 13:28:00,54.5,33.0,30.00,SSW,205,3.0,-999.0,45,-99.99,,,0.00,weatherlink.com 1.10,2013-05-18 20:28:00,
2013-05-18 13:43:00,53.4,32.0,30.00,ENE,61,0.0,-999.0,45,-99.99,,,0.00,weatherlink.com 1.10,2013-05-18 20:43:00,
2013-05-18 13:58:00,53.8,32.0,30.02,ENE,71,6.0,-999.0,43,-99.99,,,0.00,weatherlink.com 1.10,2013-05-18 20:58:00,
2013-05-18 14:13:00,53.8,32.0,30.00,ESE,109,0.0,-999.0,43,-99.99,,,0.00,weatherlink.com 1.10,2013-05-18 21:13:00,
2013-05-18 14:28:00,56.5,32.0,30.00,SSW,203,0.0,-999.0,39,-99.99,,,0.00,weatherlink.com 1.10,2013-05-18 21:28:00,
2013-05-18 14:43:00,57.8,31.0,30.00,SSW,210,9.0,-999.0,37,-99.99,,,0.00,weatherlink.com 1.10,2013-05-18 21:43:00,
2013-05-18 14:58:00,56.9,31.0,29.99,WNW,282,7.0,-999.0,38,-99.99,,,0.00,weatherlink.com 1.10,2013-05-18 21:58:00,
2013-05-18 15:13:00,58.4,31.0,29.99,WNW,298,2.0,-999.0,35,-99.99,,,0.00,weatherlink.com 1.10,2013-05-18 22:13:00,
2013-05-18 15:28:00,57.2,30.0,29.98,WNW,285,8.0,-999.0,35,-99.99,,,0.00,weatherlink.com 1.10,2013-05-18 22:28:00,
2013-05-18 15:43:00,56.2,29.0,29.99,West,272,4.0,-999.0,36,-99.99,,,0.00,weatherlink.com 1.10,2013-05-18 22:43:00,
2013-05-18 15:59:00,56.0,29.0,29.98,SSE,152,0.0,-999.0,36,-99.99,,,0.00,weatherlink.com 1.10,2013-05-18 22:59:00,
2013-05-18 16:13:00,56.0,29.0,29.98,WSW,247,6.0,-999.0,36,-99.99,,,0.00,weatherlink.com 1.10,2013-05-18 23:13:00,
2013-05-18 16:28:00,56.0,29.0,29.98,NW,322,5.0,-999.0,36,-99.99,,,0.00,weatherlink.com 1.10,2013-05-18 23:28:00,
2013-05-18 16:43:00,55.4,31.0,29.98,NW,322,5.0,-999.0,39,-99.99,,,0.00,weatherlink.com 1.10,2013-05-18 23:43:00,
2013-05-18 16:58:00,55.1,30.0,29.97,WSW,258,2.0,-999.0,39,-99.99,,,0.00,weatherlink.com 1.10,2013-05-18 23:58:00,
2013-05-18 17:13:00,54.7,29.0,29.98,NNW,335,7.0,-999.0,37,-99.99,,,0.00,weatherlink.com 1.10,2013-05-19 00:13:00,
2013-05-18 17:28:00,55.0,30.0,29.97,West,263,3.0,-999.0,38,-99.99,,,0.00,weatherlink.com 1.10,2013-05-19 00:28:00,
2013-05-18 17:44:00,54.0,30.0,29.97,SSW,200,2.0,-999.0,40,-99.99,,,0.00,weatherlink.com 1.10,2013-05-19 00:44:00,
2013-05-18 17:58:00,52.8,30.0,29.98,NNW,332,10.0,-999.0,42,-99.99,,,0.00,weatherlink.com 1.10,2013-05-19 00:58:00,
2013-05-18 18:13:00,53.4,31.0,29.99,NW,315,4.0,-999.0,43,-99.99,,,0.00,weatherlink.com 1.10,2013-05-19 01:13:00,
2013-05-18 18:28:00,52.6,32.0,29.98,WNW,285,10.0,-999.0,45,-99.99,,,0.00,weatherlink.com 1.10,2013-05-19 01:28:00,
2013-05-18 18:43:00,52.2,32.0,29.98,NW,320,0.0,-999.0,47,-99.99,,,0.00,weatherlink.com 1.10,2013-05-19 01:43:00,
2013-05-18 18:58:00,51.0,31.0,29.97,NNE,18,0.0,-999.0,47,-99.99,,,0.00,weatherlink.com 1.10,2013-05-19 01:58:00,
2013-05-18 19:13:00,49.4,30.0,29.99,NW,315,11.0,-999.0,48,-99.99,,,0.00,weatherlink.com 1.10,2013-05-19 02:13:00,
2013-05-18 19:28:00,48.9,30.0,29.98,NNW,332,3.0,-999.0,49,-99.99,,,0.00,weatherlink.com 1.10,2013-05-19 02:28:00,
2013-05-18 19:43:00,48.6,29.0,29.98,West,274,6.0,-999.0,47,-99.99,,,0.00,weatherlink.com 1.10,2013-05-19 02:43:00,
2013-05-18 19:58:00,48.3,28.0,29.97,WNW,291,8.0,-999.0,46,-99.99,,,0.00,weatherlink.com 1.10,2013-05-19 02:58:00,
2013-05-18 20:13:00,48.3,27.0,29.97,WNW,295,1.0,-999.0,43,-99.99,,,0.00,weatherlink.com 1.10,2013-05-19 03:13:00,
2013-05-18 20:28:00,48.3,26.0,29.95,NW,325,3.0,-999.0,42,-99.99,,,0.00,weatherlink.com 1.10,2013-05-19 03:28:00,
2013-05-18 20:43:00,48.5,25.0,29.94,NW,323,6.0,-999.0,40,-99.99,,,0.00,weatherlink.com 1.10,2013-05-19 03:43:00,
2013-05-18 20:58:00,48.5,24.0,29.95,NNW,333,8.0,-999.0,39,-99.99,,,0.00,weatherlink.com 1.10,2013-05-19 03:58:00,
2013-05-18 21:13:00,48.5,25.0,29.95,NE,37,0.0,-999.0,40,-99.99,,,0.00,weatherlink.com 1.10,2013-05-19 04:13:00,
2013-05-18 21:28:00,48.3,25.0,29.93,West,278,7.0,-999.0,40,-99.99,,,0.00,weatherlink.com 1.10,2013-05-19 04:28:00,
2013-05-18 21:43:00,48.3,25.0,29.93,WSW,258,3.0,-999.0,40,-99.99,,,0.00,weatherlink.com 1.10,2013-05-19 04:43:00,
2013-05-18 21:58:00,48.3,25.0,29.94,NW,305,14.0,-999.0,40,-99.99,,,0.00,weatherlink.com 1.10,2013-05-19 04:58:00,
2013-05-18 22:13:00,48.3,25.0,29.94,NNW,340,12.0,-999.0,40,-99.99,,,0.00,weatherlink.com 1.10,2013-05-19 05:13:00,
2013-05-18 22:28:00,48.2,25.0,29.94,North,0,19.0,-999.0,41,-99.99,,,0.00,weatherlink.com 1.10,2013-05-19 05:28:00,
2013-05-18 22:43:00,47.9,26.0,29.95,West,278,7.0,-999.0,43,-99.99,,,0.00,weatherlink.com 1.10,2013-05-19 05:43:00,
2013-05-18 22:58:00,47.6,26.0,29.95,SW,219,6.0,-999.0,44,-99.99,,,0.00,weatherlink.com 1.10,2013-05-19 05:58:00,
2013-05-18 23:13:00,47.3,27.0,29.95,West,271,7.0,-999.0,45,-99.99,,,0.00,weatherlink.com 1.10,2013-05-19 06:13:00,
2013-05-18 23:28:00,47.0,26.0,29.93,WNW,285,2.0,-999.0,45,-99.99,,,0.00,weatherlink.com 1.10,2013-05-19 06:28:00,
2013-05-18 23:43:00,46.9,26.0,29.94,NW,309,6.0,-999.0,45,-99.99,,,0.00,weatherlink.com 1.10,2013-05-19 06:43:00,
2013-05-18 23:58:00,46.6,27.0,29.94,West,278,6.0,-999.0,46,-99.99,,,0.00,weatherlink.com 1.10,2013-05-19 06:58:00,